Airport View

Enter AWOS ICAO identifier for current METAR.

ex. KFNL

KOIN 022305Z AUTO 15008KT 10SM CLR 35/13 A2990 RMK AO1 T03480126

2 Jun 2020 23:05

Frequency: 119.225

Phone: 785-475-2587

Other Area AWOS: KMCK - KNRN - KCBK - KIML

TAF KMCK 021742Z 0218/0318 VRB06KT P6SM SCT280 FM022200 36007KT P6SM VCTS SCT100CB SCT280 FM030000 01014G23KT P6SM VCTS BKN100CB FM030300 01009KT P6SM SCT090 SCT280 FM031500 08006KT P6SM SCT150 SCT250